Miner's Debt — WDD9211 — position and weather

sailwx.info

Track history (hours):
 
Tides and Currents Weather Stations Pressure Air Temp Water Temp Dewpoint Dewpoint Depression Visibility Wind Speed Wind Dir Waves Ship Positions

Miner's Debt

Owner: Miner, Thomas B, Gig Harbor, WA. More information available from US FCC via Universal Licensing System and Coast Guard Vessel Documentation Center.

Last reported at 2017-Dec-24 17:08 UTC. Time now 2018-Feb-18 20:00 UTC.
Position N 47°34' W 122°32'.
Warning: this ship's position is 56 days out of date.

Length 14 m.

Type: Pleasure craft. MMSI: 367308410.

Date/timePositionNaut miles runAvg speedWind from/ knotsBaromVisibWave heightAir tempDewpointWater temp
2017-Dec-24 17:08N 47°34' W 122°32'1 8.9
2017-Dec-24 16:59N 47°34' W 122°30'6 9.4
2017-Dec-24 16:20N 47°40' W 122°26'1 2.9
2017-Dec-24 15:51N 47°41' W 122°24'0 0.1
2017-Dec-24 15:27N 47°41' W 122°24'0 0.0
2017-Dec-24 14:57N 47°41' W 122°24'0 0.0
2017-Dec-24 14:24N 47°41' W 122°24'0 0.0
2017-Dec-24 13:58N 47°41' W 122°24'0 0.0
2017-Dec-24 13:28N 47°41' W 122°24'0 0.0
2017-Dec-24 12:46N 47°41' W 122°24'0 0.0
2017-Dec-24 12:28N 47°41' W 122°24'0 0.1
2017-Dec-24 11:55N 47°41' W 122°24'0 0.1
2017-Dec-24 11:28N 47°41' W 122°24'0 0.0
2017-Dec-24 10:58N 47°41' W 122°24'0 0.1
2017-Dec-24 10:28N 47°41' W 122°24'0 0.1
2017-Dec-24 09:58N 47°41' W 122°24'0 0.0
2017-Dec-24 09:28N 47°41' W 122°24'0 0.0
2017-Dec-24 08:58N 47°41' W 122°24'0 0.0
2017-Dec-24 08:28N 47°41' W 122°24'0 0.0
2017-Dec-24 07:55N 47°41' W 122°24'1 2.1
2017-Dec-24 07:27N 47°40' W 122°24'1 1.9
2017-Dec-24 06:58N 47°39' W 122°23'0 0.0
2017-Dec-24 06:28N 47°39' W 122°23'0 0.0
2017-Dec-24 05:58N 47°39' W 122°23'2 4.2
2017-Dec-24 05:30N 47°39' W 122°20'0 0.1
2017-Dec-24 04:48N 47°39' W 122°20'0 0.0
2017-Dec-24 02:51N 47°39' W 122°20'2 5.6
2017-Dec-24 02:30N 47°40' W 122°23'0 0.1
2017-Dec-24 00:20N 47°39' W 122°23'0 0.0
2017-Dec-23 23:58N 47°39' W 122°23'0 0.0
2017-Dec-23 23:30N 47°39' W 122°23'1 1.6
2017-Dec-23 22:53N 47°40' W 122°24'0 0.5
2017-Dec-23 22:29N 47°40' W 122°24'  
2017-Dec-16 19:10N 47°47' W 122°29'2 9.2
2017-Dec-16 18:55N 47°45' W 122°27'4 9.2
2017-Dec-16 18:30N 47°42' W 122°25'1 1.7
2017-Dec-16 17:59N 47°41' W 122°24'0 0.0
2017-Dec-16 17:26N 47°41' W 122°24'0 0.0
2017-Dec-16 16:56N 47°41' W 122°24'0 0.0
2017-Dec-16 16:29N 47°41' W 122°24'0 0.0
2017-Dec-16 15:59N 47°41' W 122°24'0 0.0
2017-Dec-16 15:29N 47°41' W 122°24'0 0.0
2017-Dec-16 14:56N 47°41' W 122°24'0 0.0
2017-Dec-16 14:29N 47°41' W 122°24'0 0.0
2017-Dec-16 13:59N 47°41' W 122°24'0 0.0
2017-Dec-16 13:26N 47°41' W 122°24'0 0.0
2017-Dec-16 12:59N 47°41' W 122°24'0 0.0
2017-Dec-16 12:29N 47°41' W 122°24'0 0.0
2017-Dec-16 11:59N 47°41' W 122°24'0 0.0
2017-Dec-16 11:29N 47°41' W 122°24'0 0.0
2017-Dec-16 10:59N 47°41' W 122°24'0 0.0
2017-Dec-16 10:29N 47°41' W 122°24'0 0.0
2017-Dec-16 09:59N 47°41' W 122°24'0 0.0
2017-Dec-16 09:29N 47°41' W 122°24'0 0.0
2017-Dec-16 08:59N 47°41' W 122°24'0 0.0
2017-Dec-16 08:26N 47°41' W 122°24'0 0.0
2017-Dec-16 07:50N 47°41' W 122°24'0 0.0
2017-Dec-16 07:25N 47°41' W 122°24'0 0.4
2017-Dec-16 07:00N 47°41' W 122°25'1 2.2
2017-Dec-16 06:28N 47°40' W 122°24'1 1.4
2017-Dec-16 05:59N 47°39' W 122°23'1 1.8
2017-Dec-16 05:30N 47°39' W 122°22'0 0.8
2017-Dec-16 05:00N 47°39' W 122°22'1 2.1
2017-Dec-16 04:30N 47°39' W 122°21'1 0.7
2017-Dec-16 03:13N 47°38' W 122°20'1 4.2
2017-Dec-16 03:00N 47°39' W 122°21'1 3.0
2017-Dec-16 02:30N 47°39' W 122°23'0 0.0
2017-Dec-16 02:00N 47°39' W 122°23'0 0.0
2017-Dec-16 01:30N 47°39' W 122°23'0 0.0
2017-Dec-16 00:58N 47°39' W 122°23'0 0.0
2017-Dec-16 00:28N 47°39' W 122°23'0 0.0
2017-Dec-15 23:58N 47°39' W 122°23'0 0.0
2017-Dec-15 23:28N 47°39' W 122°23'1 2.0
2017-Dec-15 23:00N 47°40' W 122°24'1 2.5
2017-Dec-15 22:30N 47°41' W 122°25'7 8.9
2017-Dec-15 21:46N 47°35' W 122°30'  
Track history (hours):
 
Tides and Currents Weather Stations Pressure Air Temp Water Temp Dewpoint Dewpoint Depression Visibility Wind Speed Wind Dir Waves Ship Positions

Miner's Debt

Owner: Miner, Thomas B, Gig Harbor, WA. More information available from US FCC via Universal Licensing System and Coast Guard Vessel Documentation Center.

Last reported at 2017-Dec-24 17:08 UTC. Time now 2018-Feb-18 20:00 UTC.
Position N 47°34' W 122°32'.
Warning: this ship's position is 56 days out of date.

Length 14 m.

Type: Pleasure craft. MMSI: 367308410.

Date/timePositionNaut miles runAvg speedWind from/ knotsBaromVisibWave heightAir tempDewpointWater temp
2017-Dec-24 17:08N 47°34' W 122°32'1 8.9
2017-Dec-24 16:59N 47°34' W 122°30'6 9.4
2017-Dec-24 16:20N 47°40' W 122°26'1 2.9
2017-Dec-24 15:51N 47°41' W 122°24'0 0.1
2017-Dec-24 15:27N 47°41' W 122°24'0 0.0
2017-Dec-24 14:57N 47°41' W 122°24'0 0.0
2017-Dec-24 14:24N 47°41' W 122°24'0 0.0
2017-Dec-24 13:58N 47°41' W 122°24'0 0.0
2017-Dec-24 13:28N 47°41' W 122°24'0 0.0
2017-Dec-24 12:46N 47°41' W 122°24'0 0.0
2017-Dec-24 12:28N 47°41' W 122°24'0 0.1
2017-Dec-24 11:55N 47°41' W 122°24'0 0.1
2017-Dec-24 11:28N 47°41' W 122°24'0 0.0
2017-Dec-24 10:58N 47°41' W 122°24'0 0.1
2017-Dec-24 10:28N 47°41' W 122°24'0 0.1
2017-Dec-24 09:58N 47°41' W 122°24'0 0.0
2017-Dec-24 09:28N 47°41' W 122°24'0 0.0
2017-Dec-24 08:58N 47°41' W 122°24'0 0.0
2017-Dec-24 08:28N 47°41' W 122°24'0 0.0
2017-Dec-24 07:55N 47°41' W 122°24'1 2.1
2017-Dec-24 07:27N 47°40' W 122°24'1 1.9
2017-Dec-24 06:58N 47°39' W 122°23'0 0.0
2017-Dec-24 06:28N 47°39' W 122°23'0 0.0
2017-Dec-24 05:58N 47°39' W 122°23'2 4.2
2017-Dec-24 05:30N 47°39' W 122°20'0 0.1
2017-Dec-24 04:48N 47°39' W 122°20'0 0.0
2017-Dec-24 02:51N 47°39' W 122°20'2 5.6
2017-Dec-24 02:30N 47°40' W 122°23'0 0.1
2017-Dec-24 00:20N 47°39' W 122°23'0 0.0
2017-Dec-23 23:58N 47°39' W 122°23'0 0.0
2017-Dec-23 23:30N 47°39' W 122°23'1 1.6
2017-Dec-23 22:53N 47°40' W 122°24'0 0.5
2017-Dec-23 22:29N 47°40' W 122°24'  
2017-Dec-16 19:10N 47°47' W 122°29'2 9.2
2017-Dec-16 18:55N 47°45' W 122°27'4 9.2
2017-Dec-16 18:30N 47°42' W 122°25'1 1.7
2017-Dec-16 17:59N 47°41' W 122°24'0 0.0
2017-Dec-16 17:26N 47°41' W 122°24'0 0.0
2017-Dec-16 16:56N 47°41' W 122°24'0 0.0
2017-Dec-16 16:29N 47°41' W 122°24'0 0.0
2017-Dec-16 15:59N 47°41' W 122°24'0 0.0
2017-Dec-16 15:29N 47°41' W 122°24'0 0.0
2017-Dec-16 14:56N 47°41' W 122°24'0 0.0
2017-Dec-16 14:29N 47°41' W 122°24'0 0.0
2017-Dec-16 13:59N 47°41' W 122°24'0 0.0
2017-Dec-16 13:26N 47°41' W 122°24'0 0.0
2017-Dec-16 12:59N 47°41' W 122°24'0 0.0
2017-Dec-16 12:29N 47°41' W 122°24'0 0.0
2017-Dec-16 11:59N 47°41' W 122°24'0 0.0
2017-Dec-16 11:29N 47°41' W 122°24'0 0.0
2017-Dec-16 10:59N 47°41' W 122°24'0 0.0
2017-Dec-16 10:29N 47°41' W 122°24'0 0.0
2017-Dec-16 09:59N 47°41' W 122°24'0 0.0
2017-Dec-16 09:29N 47°41' W 122°24'0 0.0
2017-Dec-16 08:59N 47°41' W 122°24'0 0.0
2017-Dec-16 08:26N 47°41' W 122°24'0 0.0
2017-Dec-16 07:50N 47°41' W 122°24'0 0.0
2017-Dec-16 07:25N 47°41' W 122°24'0 0.4
2017-Dec-16 07:00N 47°41' W 122°25'1 2.2
2017-Dec-16 06:28N 47°40' W 122°24'1 1.4
2017-Dec-16 05:59N 47°39' W 122°23'1 1.8
2017-Dec-16 05:30N 47°39' W 122°22'0 0.8
2017-Dec-16 05:00N 47°39' W 122°22'1 2.1
2017-Dec-16 04:30N 47°39' W 122°21'1 0.7
2017-Dec-16 03:13N 47°38' W 122°20'1 4.2
2017-Dec-16 03:00N 47°39' W 122°21'1 3.0
2017-Dec-16 02:30N 47°39' W 122°23'0 0.0
2017-Dec-16 02:00N 47°39' W 122°23'0 0.0
2017-Dec-16 01:30N 47°39' W 122°23'0 0.0
2017-Dec-16 00:58N 47°39' W 122°23'0 0.0
2017-Dec-16 00:28N 47°39' W 122°23'0 0.0
2017-Dec-15 23:58N 47°39' W 122°23'0 0.0
2017-Dec-15 23:28N 47°39' W 122°23'1 2.0
2017-Dec-15 23:00N 47°40' W 122°24'1 2.5
2017-Dec-15 22:30N 47°41' W 122°25'7 8.9
2017-Dec-15 21:46N 47°35' W 122°30'  

Dump ship's entire track history